CheckWX is a tool to help pilots better visualize weather data.  It is not intended as a substitute for an official pre-flight weather briefing.

12:04:40 UTC

KPAM TAF
Tyndall AFB Airport
Panama City, Florida, USA
TAF KPAM 201000Z 2010/2116 VRB06KT 9999 FEW025 BKN160 QNH3002INS BECMG 2015/2016 19009KT 9999 VCTS BKN035CB QNH3003INS BECMG 2021/2022 20009KT 9999 NSW FEW035 QNH3003INS BECMG 2108/2109 VRB06KT 9999 SCT012 QNH3004INS TX31/2018Z TN24/2011Z

Aug-20@
10:00 UTC

Aug-20 @ 10:00 UTC

Aug-20@
15:00 UTC

Aug-20 @ 15:00 UTC

TAF KPAM 201000Z 2010/2116 VRB06KT 9999 FEW025 BKN160 QNH3002INS
Wind
  • Variable at 6 KTS
Cloud Levels
  • Few at 2,500' AGL
  • Broken at 16,000' AGL

Aug-20@
15:00 UTC

Aug-20 @ 15:00 UTC

Aug-20@
21:00 UTC

Aug-20 @ 21:00 UTC

BECMG 2015/2016 19009KT 9999 VCTS BKN035CB QNH3003INS

Becoming

Becoming Conditions expected by Tue, Aug 20, 2019 @ 16:00 UTC

Wind
  • 190° at 9 KTS
Conditions
Area Thunderstorm
Cloud Levels
  • Broken at 3,500' AGL

Aug-20@
21:00 UTC

Aug-20 @ 21:00 UTC

Aug-21@
08:00 UTC

Aug-21 @ 08:00 UTC

BECMG 2021/2022 20009KT 9999 NSW FEW035 QNH3003INS

Becoming

Becoming Conditions expected by Tue, Aug 20, 2019 @ 22:00 UTC

Wind
  • 200° at 9 KTS
Conditions
No significant weather
Cloud Levels
  • Few at 3,500' AGL

Aug-21@
08:00 UTC

Aug-21 @ 08:00 UTC

Aug-21@
16:00 UTC

Aug-21 @ 16:00 UTC

BECMG 2108/2109 VRB06KT 9999 SCT012 QNH3004INS TX31/2018Z TN24/2011Z

Becoming

Becoming Conditions expected by Wed, Aug 21, 2019 @ 09:00 UTC

Wind
  • Variable at 6 KTS
Conditions
No significant weather
Cloud Levels
  • Scattered at 1,200' AGL